createdAt,value
2023-03-30T00:02:25.310Z,2.52
2023-03-30T00:04:51.881Z,2.54
2023-03-30T00:07:18.532Z,2.23
2023-03-30T00:09:45.058Z,2.48
2023-03-30T00:12:11.435Z,2.45
2023-03-30T00:14:37.800Z,2.56
2023-03-30T00:17:04.169Z,2.32
2023-03-30T00:19:30.550Z,2.37
2023-03-30T00:21:56.929Z,2.52
2023-03-30T00:24:23.259Z,2.36
2023-03-30T00:26:49.658Z,2.41
2023-03-30T00:29:16.349Z,2.34
2023-03-30T00:31:42.744Z,2.35
2023-03-30T00:34:09.153Z,2.25
2023-03-30T00:36:35.534Z,2.37
2023-03-30T00:39:01.921Z,2.12
2023-03-30T00:41:28.493Z,2.20
2023-03-30T00:43:54.890Z,2.52
2023-03-30T00:46:21.262Z,2.47
2023-03-30T00:48:47.611Z,2.40
2023-03-30T00:51:13.973Z,2.31
2023-03-30T00:53:40.301Z,2.44
2023-03-30T00:56:06.629Z,2.33
2023-03-30T00:58:32.991Z,2.25
2023-03-30T01:00:59.380Z,2.22
2023-03-30T01:03:25.835Z,2.34
2023-03-30T01:05:52.261Z,2.24
2023-03-30T01:08:18.585Z,2.29
2023-03-30T01:10:45.205Z,2.25
2023-03-30T01:13:11.595Z,2.17
2023-03-30T01:15:37.941Z,2.15
2023-03-30T01:18:04.330Z,2.11
2023-03-30T01:20:30.724Z,2.49
2023-03-30T01:22:57.057Z,2.07
2023-03-30T01:25:23.419Z,1.95
2023-03-30T01:27:49.929Z,2.06
2023-03-30T01:30:16.317Z,2.06
2023-03-30T01:32:42.693Z,2.08
2023-03-30T01:35:09.159Z,2.10
2023-03-30T01:37:35.603Z,2.13
2023-03-30T01:40:02.094Z,2.19
2023-03-30T01:42:28.476Z,2.20
2023-03-30T01:44:54.925Z,2.03
2023-03-30T01:47:21.285Z,1.98
2023-03-30T01:49:47.599Z,2.00
2023-03-30T01:52:13.934Z,2.02
2023-03-30T01:54:40.291Z,2.00
2023-03-30T01:57:06.798Z,1.93
2023-03-30T01:59:33.227Z,1.86
2023-03-30T02:01:59.731Z,1.67
2023-03-30T02:04:26.119Z,1.80
2023-03-30T02:06:52.539Z,2.08
2023-03-30T02:09:18.915Z,1.78
2023-03-30T02:11:45.412Z,1.97
2023-03-30T02:14:11.778Z,1.81
2023-03-30T02:16:38.191Z,1.74
2023-03-30T02:19:04.614Z,1.80
2023-03-30T02:21:31.146Z,1.72
2023-03-30T02:23:57.526Z,1.90
2023-03-30T02:26:23.878Z,1.91
2023-03-30T02:28:50.281Z,1.75
2023-03-30T02:31:16.689Z,1.76
2023-03-30T02:33:43.110Z,1.60
2023-03-30T02:36:09.482Z,1.61
2023-03-30T02:38:35.826Z,1.75
2023-03-30T02:41:02.467Z,1.52
2023-03-30T02:43:29.097Z,1.77
2023-03-30T02:45:55.533Z,1.62
2023-03-30T02:48:21.914Z,1.66
2023-03-30T02:50:48.243Z,1.43
2023-03-30T02:53:14.770Z,1.62
2023-03-30T02:55:41.101Z,1.65
2023-03-30T02:58:07.413Z,1.61
2023-03-30T03:00:33.743Z,1.57
2023-03-30T03:03:00.253Z,1.77
2023-03-30T03:05:26.918Z,1.66
2023-03-30T03:07:53.244Z,1.61
2023-03-30T03:10:19.600Z,1.47
2023-03-30T03:12:45.992Z,1.60
2023-03-30T03:15:12.404Z,1.47
2023-03-30T03:17:38.768Z,1.52
2023-03-30T03:20:05.122Z,1.50
2023-03-30T03:22:31.500Z,1.57
2023-03-30T03:24:57.854Z,1.44
2023-03-30T03:27:24.196Z,1.44
2023-03-30T03:29:50.499Z,1.52
2023-03-30T03:32:16.814Z,1.47
2023-03-30T03:34:43.189Z,1.43
2023-03-30T03:37:09.630Z,1.32
2023-03-30T03:39:36.006Z,1.37
2023-03-30T03:42:02.397Z,1.44
2023-03-30T03:44:28.884Z,1.32
2023-03-30T03:46:55.220Z,1.40
2023-03-30T03:49:21.567Z,1.43
2023-03-30T03:51:47.886Z,1.41
2023-03-30T03:54:14.217Z,1.27
2023-03-30T03:56:40.555Z,1.28
2023-03-30T03:59:06.993Z,1.25
2023-03-30T04:01:33.335Z,1.40
2023-03-30T04:03:59.671Z,1.34
2023-03-30T04:06:26.097Z,1.32
2023-03-30T04:08:52.452Z,1.51
2023-03-30T04:11:18.921Z,1.45
2023-03-30T04:13:45.309Z,1.39
2023-03-30T04:16:11.656Z,1.30
2023-03-30T04:18:38.077Z,1.30
2023-03-30T04:21:04.641Z,1.23
2023-03-30T04:23:31.231Z,1.36
2023-03-30T04:25:57.567Z,1.35
2023-03-30T04:28:23.878Z,1.21
2023-03-30T04:30:50.235Z,1.19
2023-03-30T04:33:16.596Z,1.21
2023-03-30T04:35:43.306Z,1.17
2023-03-30T04:38:09.645Z,1.28
2023-03-30T04:40:36.108Z,1.20
2023-03-30T04:43:02.577Z,1.30
2023-03-30T04:45:29.060Z,1.28
2023-03-30T04:47:55.481Z,1.25
2023-03-30T04:50:21.909Z,1.20
2023-03-30T04:52:48.254Z,1.33
2023-03-30T04:55:14.586Z,1.33
2023-03-30T04:57:40.979Z,1.18
2023-03-30T05:00:07.294Z,1.21
2023-03-30T05:02:33.812Z,1.30
2023-03-30T05:05:00.175Z,1.14
2023-03-30T05:07:26.558Z,1.19
2023-03-30T05:09:52.901Z,1.04
2023-03-30T05:12:19.208Z,1.25
2023-03-30T05:14:45.532Z,1.30
2023-03-30T05:17:11.893Z,1.22
2023-03-30T05:19:38.286Z,1.07
2023-03-30T05:22:04.669Z,1.08
2023-03-30T05:24:31.044Z,1.24
2023-03-30T05:26:57.793Z,1.24
2023-03-30T05:29:24.186Z,1.18
2023-03-30T05:31:50.669Z,1.31
2023-03-30T05:34:17.064Z,1.29
2023-03-30T05:36:43.545Z,1.40
2023-03-30T05:39:09.889Z,1.17
2023-03-30T05:41:36.231Z,1.32
2023-03-30T05:44:02.607Z,1.34
2023-03-30T05:46:29.049Z,1.21
2023-03-30T05:48:55.383Z,1.24
2023-03-30T05:51:21.705Z,1.30
2023-03-30T05:53:48.060Z,1.35
2023-03-30T05:56:14.392Z,1.32
2023-03-30T05:58:40.810Z,1.22
2023-03-30T06:01:07.385Z,1.43
2023-03-30T06:03:34.020Z,1.29
2023-03-30T06:06:00.556Z,1.32
2023-03-30T06:08:26.899Z,1.39
2023-03-30T06:10:53.289Z,1.46
2023-03-30T06:13:19.644Z,1.31
2023-03-30T06:15:46.016Z,1.32
2023-03-30T06:18:12.447Z,1.33
2023-03-30T06:20:38.826Z,1.46
2023-03-30T06:23:05.201Z,1.46
2023-03-30T06:25:31.647Z,1.47
2023-03-30T06:27:57.996Z,1.44
2023-03-30T06:30:25.448Z,1.49
2023-03-30T06:32:51.802Z,1.57
2023-03-30T06:35:18.188Z,1.43
2023-03-30T06:37:44.569Z,1.40
2023-03-30T06:40:10.907Z,1.46
2023-03-30T06:42:37.301Z,1.44
2023-03-30T06:45:03.655Z,1.45
2023-03-30T06:47:30.002Z,1.47
2023-03-30T06:49:56.337Z,1.37
2023-03-30T06:52:22.863Z,1.61
2023-03-30T06:54:49.393Z,1.59
2023-03-30T06:57:15.767Z,1.65
2023-03-30T06:59:42.153Z,1.56
2023-03-30T07:02:08.471Z,1.65
2023-03-30T07:04:35.023Z,1.53
2023-03-30T07:07:01.412Z,1.64
2023-03-30T07:09:27.783Z,1.53
2023-03-30T07:11:56.278Z,1.49
2023-03-30T07:14:23.038Z,1.39
2023-03-30T07:16:49.394Z,1.46
2023-03-30T07:19:15.714Z,1.62
2023-03-30T07:21:42.088Z,1.63
2023-03-30T07:24:08.461Z,1.54
2023-03-30T07:26:34.846Z,1.47
2023-03-30T07:29:01.225Z,1.50
2023-03-30T07:31:27.866Z,1.52
2023-03-30T07:33:54.325Z,1.71
2023-03-30T07:36:20.682Z,1.51
2023-03-30T07:38:47.102Z,1.49
2023-03-30T07:41:13.468Z,1.63
2023-03-30T07:43:39.913Z,1.66
2023-03-30T07:46:06.281Z,1.81
2023-03-30T07:48:32.668Z,1.83
2023-03-30T07:50:58.992Z,1.62
2023-03-30T07:53:25.394Z,1.69
2023-03-30T07:55:52.105Z,1.70
2023-03-30T07:58:18.493Z,1.80
2023-03-30T08:00:44.811Z,1.56
2023-03-30T08:03:11.318Z,1.62
2023-03-30T08:05:37.744Z,1.69
2023-03-30T08:08:04.350Z,1.57
2023-03-30T08:10:30.843Z,1.62
2023-03-30T08:12:57.165Z,1.70
2023-03-30T08:15:23.533Z,1.72
2023-03-30T08:17:49.909Z,1.95
2023-03-30T08:20:16.306Z,1.67
2023-03-30T08:22:42.653Z,1.86
2023-03-30T08:25:09.061Z,1.64
2023-03-30T08:27:35.387Z,1.71
2023-03-30T08:30:01.843Z,1.67
2023-03-30T08:32:28.194Z,1.72
2023-03-30T08:34:54.574Z,1.86
2023-03-30T08:37:20.956Z,1.94
2023-03-30T08:39:47.336Z,1.83
2023-03-30T08:42:13.798Z,1.85
2023-03-30T08:44:40.143Z,1.68
2023-03-30T08:47:06.468Z,1.83
2023-03-30T08:49:32.878Z,1.76
2023-03-30T08:52:00.162Z,2.01
2023-03-30T08:54:28.161Z,1.94
2023-03-30T08:56:54.565Z,1.98
2023-03-30T08:59:20.883Z,1.79
2023-03-30T09:01:47.245Z,1.80
2023-03-30T09:04:13.575Z,1.80
2023-03-30T09:06:40.103Z,2.12
2023-03-30T09:09:06.495Z,2.15
2023-03-30T09:11:32.885Z,2.02
2023-03-30T09:13:59.221Z,1.91
2023-03-30T09:16:25.644Z,1.87
2023-03-30T09:18:52.120Z,1.98
2023-03-30T09:21:18.501Z,2.12
2023-03-30T09:23:44.888Z,2.08
2023-03-30T09:26:11.279Z,1.84
2023-03-30T09:28:37.705Z,1.97
2023-03-30T09:31:04.431Z,2.01
2023-03-30T09:33:30.982Z,1.91
2023-03-30T09:35:57.339Z,2.17
2023-03-30T09:38:23.774Z,2.16
2023-03-30T09:40:50.362Z,2.07
2023-03-30T09:43:16.720Z,2.08
2023-03-30T09:45:43.057Z,2.24
2023-03-30T09:48:09.638Z,1.98
2023-03-30T09:50:36.076Z,2.44
2023-03-30T09:53:02.404Z,2.32
2023-03-30T09:55:28.793Z,2.27
2023-03-30T09:57:55.195Z,2.22
2023-03-30T10:00:21.517Z,2.31
2023-03-30T10:02:48.179Z,2.21
2023-03-30T10:05:14.631Z,2.08
2023-03-30T10:07:41.034Z,2.36
2023-03-30T10:10:07.380Z,2.42
2023-03-30T10:12:33.723Z,2.45
2023-03-30T10:15:00.229Z,2.32
2023-03-30T10:17:26.776Z,2.32
2023-03-30T10:22:19.825Z,2.37
2023-03-30T10:24:46.161Z,2.38
2023-03-30T10:27:12.511Z,2.46
2023-03-30T10:29:38.827Z,2.45
2023-03-30T10:32:05.348Z,2.59
2023-03-30T10:34:31.664Z,2.62
2023-03-30T10:36:58.051Z,2.48
2023-03-30T10:39:24.444Z,2.59
2023-03-30T10:41:50.765Z,2.48
2023-03-30T10:44:17.288Z,2.32
2023-03-30T10:46:43.634Z,2.46
2023-03-30T10:49:09.961Z,2.68
2023-03-30T10:51:36.644Z,2.57
2023-03-30T10:54:03.027Z,2.62
2023-03-30T10:56:29.369Z,2.57
2023-03-30T10:58:55.702Z,2.77
2023-03-30T11:01:22.088Z,2.70
2023-03-30T11:03:48.555Z,2.53
2023-03-30T11:06:15.040Z,2.64
2023-03-30T11:08:41.385Z,2.66
2023-03-30T11:11:07.696Z,2.48
2023-03-30T11:13:34.087Z,2.47
2023-03-30T11:16:00.459Z,2.70
2023-03-30T11:18:26.806Z,2.67
2023-03-30T11:20:53.155Z,2.49
2023-03-30T11:23:19.508Z,2.66
2023-03-30T11:25:45.865Z,2.44
2023-03-30T11:28:12.193Z,2.61
2023-03-30T11:30:38.585Z,2.62
2023-03-30T11:33:05.021Z,2.45
2023-03-30T11:35:31.421Z,2.31
2023-03-30T11:37:57.746Z,2.55
2023-03-30T11:40:26.372Z,2.57
2023-03-30T11:42:53.379Z,2.66
2023-03-30T11:45:19.771Z,2.41
2023-03-30T11:47:46.158Z,2.52
2023-03-30T11:50:12.632Z,2.56
2023-03-30T11:52:39.019Z,2.53
2023-03-30T11:55:05.405Z,2.65
2023-03-30T11:57:31.797Z,2.42
2023-03-30T11:59:58.186Z,2.65
2023-03-30T12:02:24.569Z,2.60
2023-03-30T12:04:50.954Z,2.54
2023-03-30T12:07:17.322Z,2.66
2023-03-30T12:09:43.666Z,2.32
2023-03-30T12:12:10.039Z,2.59
2023-03-30T12:14:36.443Z,2.95
2023-03-30T12:17:02.845Z,2.78
2023-03-30T12:19:29.223Z,2.69
2023-03-30T12:21:55.813Z,2.43
2023-03-30T12:24:22.193Z,2.76
2023-03-30T12:27:02.076Z,2.36
2023-03-30T12:29:52.750Z,2.50
2023-03-30T12:32:16.863Z,2.53
2023-03-30T12:34:43.220Z,2.23
2023-03-30T12:37:09.826Z,2.67
2023-03-30T12:39:36.200Z,2.58
2023-03-30T12:42:02.522Z,2.60
2023-03-30T12:44:28.890Z,2.89
2023-03-30T12:46:55.278Z,2.85
2023-03-30T12:49:21.895Z,2.44
2023-03-30T12:51:48.291Z,2.73
2023-03-30T12:54:14.668Z,2.67
2023-03-30T12:56:41.087Z,2.66
2023-03-30T12:59:07.423Z,2.67
2023-03-30T13:01:33.857Z,2.85
2023-03-30T13:04:00.320Z,2.37
2023-03-30T13:06:26.649Z,2.52
2023-03-30T13:08:53.128Z,2.59
2023-03-30T13:11:19.446Z,2.50
2023-03-30T13:13:45.819Z,2.40
2023-03-30T13:16:14.129Z,2.50
2023-03-30T13:18:40.843Z,2.62
2023-03-30T13:21:07.293Z,2.75
2023-03-30T13:23:33.625Z,2.41
2023-03-30T13:26:00.103Z,2.73
2023-03-30T13:28:26.456Z,2.49
2023-03-30T13:30:52.824Z,2.27
2023-03-30T13:33:19.179Z,2.44
2023-03-30T13:35:45.551Z,2.53
2023-03-30T13:38:11.986Z,2.25
2023-03-30T13:40:46.194Z,2.50
2023-03-30T13:43:20.820Z,2.28
2023-03-30T13:45:47.211Z,2.38
2023-03-30T13:48:13.642Z,2.13
2023-03-30T13:50:40.047Z,2.59
2023-03-30T13:53:06.376Z,2.66
2023-03-30T13:55:33.615Z,2.19
2023-03-30T13:58:00.170Z,2.34
2023-03-30T14:00:26.620Z,2.25
2023-03-30T14:02:53.045Z,2.01
2023-03-30T14:05:19.427Z,2.40
2023-03-30T14:07:45.760Z,2.33
2023-03-30T14:10:12.098Z,2.07
2023-03-30T14:12:39.469Z,2.28
2023-03-30T14:15:06.072Z,2.23
2023-03-30T14:17:32.475Z,2.14
2023-03-30T14:19:58.839Z,2.02
2023-03-30T14:22:25.182Z,2.22
2023-03-30T14:24:51.603Z,2.12
2023-03-30T14:27:17.924Z,2.10
2023-03-30T14:29:44.311Z,2.21
2023-03-30T14:32:12.160Z,2.22
2023-03-30T14:34:40.582Z,1.81
2023-03-30T14:37:06.921Z,2.06
2023-03-30T14:39:33.297Z,2.07
2023-03-30T14:41:59.712Z,1.86
2023-03-30T14:44:26.031Z,1.72
2023-03-30T14:46:52.346Z,2.03
2023-03-30T14:49:18.736Z,2.25
2023-03-30T14:51:45.084Z,2.03
2023-03-30T14:54:11.418Z,2.12
2023-03-30T14:56:37.752Z,2.41
2023-03-30T14:59:04.215Z,2.20
2023-03-30T15:01:30.754Z,2.27
2023-03-30T15:03:57.145Z,2.11
2023-03-30T15:06:24.512Z,2.04
2023-03-30T15:08:51.056Z,2.03
2023-03-30T15:11:17.531Z,2.15
2023-03-30T15:13:43.861Z,2.02
2023-03-30T15:16:10.330Z,2.15
2023-03-30T15:18:36.647Z,2.27
2023-03-30T15:21:03.218Z,2.16
2023-03-30T15:23:29.780Z,2.44
2023-03-30T15:25:56.159Z,2.36
2023-03-30T15:28:22.515Z,2.51
2023-03-30T15:30:48.853Z,2.71
2023-03-30T15:33:15.277Z,2.78
2023-03-30T15:35:41.724Z,3.02
2023-03-30T15:38:08.224Z,3.00
2023-03-30T15:40:34.600Z,2.63
2023-03-30T15:43:00.928Z,2.70
2023-03-30T15:45:27.283Z,2.70
2023-03-30T15:47:53.668Z,2.61
2023-03-30T15:50:20.102Z,2.72
2023-03-30T15:52:46.482Z,2.78
2023-03-30T15:55:12.809Z,2.48
2023-03-30T15:57:39.249Z,2.29
2023-03-30T16:00:05.635Z,2.55
2023-03-30T16:02:32.006Z,2.46
2023-03-30T16:04:58.449Z,2.39
2023-03-30T16:07:24.822Z,2.46
2023-03-30T16:09:51.149Z,2.37
2023-03-30T16:12:17.481Z,2.36
2023-03-30T16:14:43.995Z,2.46
2023-03-30T16:17:10.404Z,2.45
2023-03-30T16:19:36.790Z,2.65
2023-03-30T16:22:03.145Z,2.75
2023-03-30T16:24:29.622Z,2.76
2023-03-30T16:26:55.984Z,2.73
2023-03-30T16:29:22.328Z,2.82
2023-03-30T16:31:48.710Z,2.87
2023-03-30T16:34:15.062Z,2.94
2023-03-30T16:36:41.434Z,3.00
2023-03-30T16:39:07.805Z,2.62
2023-03-30T16:41:34.184Z,3.08
2023-03-30T16:44:00.562Z,2.59
2023-03-30T16:46:26.961Z,2.85
2023-03-30T16:48:53.344Z,2.74
2023-03-30T16:51:19.822Z,2.82
2023-03-30T16:53:46.215Z,2.91
2023-03-30T16:56:12.522Z,3.10
2023-03-30T16:58:38.859Z,3.24
2023-03-30T17:01:05.400Z,2.60
2023-03-30T17:03:32.161Z,3.00
2023-03-30T17:05:58.597Z,2.94
2023-03-30T17:08:25.160Z,2.73
2023-03-30T17:10:51.539Z,2.87
2023-03-30T17:13:17.888Z,2.93
2023-03-30T17:15:44.216Z,2.69
2023-03-30T17:18:10.537Z,3.27
2023-03-30T17:20:36.923Z,2.85
2023-03-30T17:23:03.270Z,2.65
2023-03-30T17:25:29.606Z,2.70
2023-03-30T17:27:56.112Z,2.91
2023-03-30T17:30:22.508Z,2.65
2023-03-30T17:32:48.941Z,2.72
2023-03-30T17:35:15.309Z,2.65
2023-03-30T17:37:41.626Z,2.92
2023-03-30T17:40:08.005Z,2.52
2023-03-30T17:42:34.628Z,2.61
2023-03-30T17:45:00.979Z,2.87
2023-03-30T17:47:27.301Z,2.73
2023-03-30T17:49:53.680Z,2.45
2023-03-30T17:52:20.070Z,2.83
2023-03-30T17:54:46.545Z,2.60
2023-03-30T17:57:13.004Z,2.73
2023-03-30T17:59:39.503Z,2.67
2023-03-30T18:02:05.885Z,2.73
2023-03-30T18:04:32.414Z,2.69
2023-03-30T18:06:58.767Z,2.60
2023-03-30T18:09:25.270Z,2.54
2023-03-30T18:11:51.640Z,2.44
2023-03-30T18:14:18.035Z,2.78
2023-03-30T18:16:45.692Z,2.38
2023-03-30T18:19:12.359Z,2.64
2023-03-30T18:21:38.702Z,2.80
2023-03-30T18:24:05.025Z,2.72
2023-03-30T18:26:31.356Z,2.82
2023-03-30T18:28:57.683Z,2.66
2023-03-30T18:31:24.041Z,2.68
2023-03-30T18:33:52.501Z,2.81
2023-03-30T18:36:19.854Z,2.75
2023-03-30T18:38:46.480Z,3.01
2023-03-30T18:41:12.868Z,3.03
2023-03-30T18:43:39.231Z,2.99
2023-03-30T18:46:05.798Z,2.85
2023-03-30T18:48:32.308Z,2.64
2023-03-30T18:50:59.115Z,2.86
2023-03-30T18:53:25.439Z,3.01
2023-03-30T18:55:51.772Z,3.08
2023-03-30T18:58:18.140Z,2.88
2023-03-30T19:00:44.516Z,2.74
2023-03-30T19:03:10.970Z,3.21
2023-03-30T19:05:37.457Z,3.07
2023-03-30T19:08:03.960Z,2.77
2023-03-30T19:10:30.800Z,2.89
2023-03-30T19:12:57.136Z,2.82
2023-03-30T19:15:23.466Z,2.81
2023-03-30T19:17:49.854Z,2.92
2023-03-30T19:20:16.259Z,2.97
2023-03-30T19:22:42.576Z,3.00
2023-03-30T19:25:08.908Z,2.76
2023-03-30T19:27:35.313Z,2.93
2023-03-30T19:30:01.726Z,2.92
2023-03-30T19:32:28.089Z,2.91
2023-03-30T19:34:54.451Z,2.68
2023-03-30T19:37:20.936Z,2.86
2023-03-30T19:39:47.252Z,2.88
2023-03-30T19:42:13.673Z,2.92
2023-03-30T19:44:40.044Z,2.87
2023-03-30T19:47:06.372Z,2.58
2023-03-30T19:49:32.733Z,2.76
2023-03-30T19:51:59.096Z,2.82
2023-03-30T19:54:25.439Z,2.75
2023-03-30T19:56:51.823Z,2.97
2023-03-30T19:59:20.366Z,3.01
2023-03-30T20:01:46.959Z,3.15
2023-03-30T20:04:13.326Z,3.11
2023-03-30T20:06:39.640Z,2.77
2023-03-30T20:09:05.969Z,2.83
2023-03-30T20:11:32.340Z,2.70
2023-03-30T20:13:58.667Z,2.89
2023-03-30T20:16:25.075Z,2.75
2023-03-30T20:18:51.519Z,2.82
2023-03-30T20:21:18.090Z,2.81
2023-03-30T20:23:44.413Z,2.91
2023-03-30T20:26:10.819Z,2.74
2023-03-30T20:28:37.137Z,2.85
2023-03-30T20:31:03.648Z,2.96
2023-03-30T20:33:30.879Z,3.07
2023-03-30T20:35:57.318Z,2.93
2023-03-30T20:38:23.708Z,2.87
2023-03-30T20:40:50.090Z,2.75
2023-03-30T20:43:16.512Z,2.90
2023-03-30T20:45:43.142Z,2.81
2023-03-30T20:48:09.522Z,2.72
2023-03-30T20:50:35.868Z,2.76
2023-03-30T20:53:02.217Z,2.83
2023-03-30T20:55:28.646Z,2.95
2023-03-30T20:57:55.137Z,2.99
2023-03-30T21:00:21.453Z,3.11
2023-03-30T21:02:47.811Z,2.71
2023-03-30T21:05:14.183Z,2.68
2023-03-30T21:07:40.617Z,2.78
2023-03-30T21:10:07.226Z,2.64
2023-03-30T21:12:33.595Z,2.63
2023-03-30T21:15:00.011Z,2.71
2023-03-30T21:17:26.458Z,2.63
2023-03-30T21:19:52.829Z,2.87
2023-03-30T21:22:19.205Z,2.28
2023-03-30T21:24:45.600Z,2.45
2023-03-30T21:27:12.100Z,2.41
2023-03-30T21:29:38.541Z,2.35
2023-03-30T21:32:04.900Z,2.65
2023-03-30T21:34:31.291Z,2.64
2023-03-30T21:36:57.931Z,2.44
2023-03-30T21:39:24.378Z,2.66
2023-03-30T21:41:50.747Z,2.64
2023-03-30T21:44:17.141Z,2.54
2023-03-30T21:46:43.521Z,2.48
2023-03-30T21:49:10.640Z,2.65
2023-03-30T21:51:36.957Z,2.84
2023-03-30T21:54:03.310Z,3.01
2023-03-30T21:56:29.785Z,2.59
2023-03-30T21:58:56.375Z,2.51
2023-03-30T22:01:22.814Z,2.62
2023-03-30T22:03:49.277Z,2.56
2023-03-30T22:06:15.942Z,2.50
2023-03-30T22:08:42.376Z,2.58
2023-03-30T22:11:08.781Z,2.50
2023-03-30T22:13:35.375Z,2.45
2023-03-30T22:16:02.016Z,2.46
2023-03-30T22:18:28.439Z,2.69
2023-03-30T22:20:54.800Z,2.76
2023-03-30T22:23:21.182Z,2.50
2023-03-30T22:25:47.546Z,2.49
2023-03-30T22:28:13.867Z,2.51
2023-03-30T22:30:40.515Z,2.66
2023-03-30T22:33:06.931Z,2.60
2023-03-30T22:35:33.432Z,2.45
2023-03-30T22:37:59.949Z,2.55
2023-03-30T22:40:26.541Z,2.54
2023-03-30T22:42:52.857Z,2.40
2023-03-30T22:45:19.210Z,2.51
2023-03-30T22:47:45.890Z,2.56
2023-03-30T22:50:12.291Z,2.27
2023-03-30T22:52:38.697Z,2.47
2023-03-30T22:55:05.054Z,2.34
2023-03-30T22:57:31.365Z,2.32
2023-03-30T22:59:57.805Z,2.27
2023-03-30T23:02:24.192Z,2.08
2023-03-30T23:04:50.505Z,2.34
2023-03-30T23:07:16.921Z,2.46
2023-03-30T23:09:43.311Z,2.25
2023-03-30T23:12:09.684Z,2.18
2023-03-30T23:14:36.060Z,1.97
2023-03-30T23:17:02.525Z,2.17
2023-03-30T23:19:28.973Z,2.33
2023-03-30T23:21:55.370Z,2.39
2023-03-30T23:24:21.704Z,2.17
2023-03-30T23:26:48.033Z,2.16
2023-03-30T23:29:14.626Z,2.05
2023-03-30T23:31:41.053Z,1.95
2023-03-30T23:34:07.388Z,2.24
2023-03-30T23:36:33.796Z,2.09
2023-03-30T23:39:00.117Z,2.28
2023-03-30T23:41:26.474Z,2.24
2023-03-30T23:43:52.817Z,2.23
2023-03-30T23:46:19.267Z,2.33
2023-03-30T23:48:45.650Z,2.21
2023-03-30T23:51:12.019Z,2.39
2023-03-30T23:53:38.395Z,2.26
2023-03-30T23:56:04.937Z,2.10
2023-03-30T23:58:31.456Z,2.46
